Arrowbear Lake, California
Current Conditions -  °F | °C
As of 9:47 AM on Friday 21 Nov 2014 (Local Time) from KSBD Reporting Station
Scattered Clouds Scattered Clouds  
Wind Chill: 15°   Ceiling: Unl
Heat Index: 15°   Visibility: 10mi
Dew Point:   Wind: 0mph
Humidity: 67%   Direction: NA
Pressure: 29.99"   Gusts: NA
Location:  34.1964°N, 117.089°W
Report Text: KSBD 211747Z 00000KT 10SM SCT070 15/09 A2999
Loading
Personal Weather Stations






























Interactive Weather Map New forecast layout! Learn more

10-Day Weather Forecast

Advertisements
Track Severe Weather on mobile